createdAt,value
2022-09-16T00:00:56.753Z,4.60
2022-09-16T00:03:25.488Z,4.67
2022-09-16T00:05:54.177Z,2.47
2022-09-16T00:08:22.876Z,3.90
2022-09-16T00:10:50.616Z,4.53
2022-09-16T00:13:18.914Z,4.00
2022-09-16T00:15:51.234Z,2.70
2022-09-16T00:18:20.382Z,3.30
2022-09-16T00:20:51.814Z,3.63
2022-09-16T00:23:19.954Z,2.37
2022-09-16T00:25:52.516Z,2.27
2022-09-16T00:28:21.602Z,4.37
2022-09-16T00:30:49.815Z,1.60
2022-09-16T00:33:17.622Z,4.23
2022-09-16T00:35:45.144Z,2.87
2022-09-16T00:38:14.254Z,2.10
2022-09-16T00:40:45.622Z,4.10
2022-09-16T00:43:15.009Z,2.57
2022-09-16T00:45:46.223Z,3.40
2022-09-16T00:48:21.431Z,4.37
2022-09-16T00:50:54.167Z,2.33
2022-09-16T00:53:28.494Z,1.63
2022-09-16T00:56:00.225Z,3.37
2022-09-16T00:58:40.799Z,2.73
2022-09-16T01:01:08.239Z,4.70
2022-09-16T01:03:44.718Z,4.53
2022-09-16T01:06:15.131Z,3.03
2022-09-16T01:08:45.841Z,3.23
2022-09-16T01:11:13.154Z,3.27
2022-09-16T01:13:42.712Z,3.60
2022-09-16T01:16:21.074Z,3.50
2022-09-16T01:19:01.095Z,3.90
2022-09-16T01:21:45.722Z,1.97
2022-09-16T01:24:48.870Z,8.60
2022-09-16T01:27:58.379Z,3.13
2022-09-16T01:30:54.013Z,3.47
2022-09-16T01:33:39.415Z,3.87
2022-09-16T01:36:31.314Z,4.40
2022-09-16T01:39:18.673Z,2.63
2022-09-16T01:42:10.482Z,4.27
2022-09-16T01:44:46.979Z,2.80
2022-09-16T01:47:27.402Z,4.43
2022-09-16T01:50:05.879Z,2.70
2022-09-16T01:52:46.139Z,3.03
2022-09-16T01:55:24.034Z,4.17
2022-09-16T01:57:59.692Z,3.60
2022-09-16T02:00:27.932Z,5.37
2022-09-16T02:03:02.301Z,3.53
2022-09-16T02:05:37.249Z,3.47
2022-09-16T02:08:11.052Z,4.10
2022-09-16T02:10:43.633Z,4.53
2022-09-16T02:13:19.395Z,1.03
2022-09-16T02:15:53.986Z,3.07
2022-09-16T02:18:28.152Z,3.10
2022-09-16T02:21:01.119Z,2.53
2022-09-16T02:23:37.645Z,1.47
2022-09-16T02:26:09.525Z,2.93
2022-09-16T02:28:44.014Z,2.33
2022-09-16T02:31:14.731Z,3.93
2022-09-16T02:33:53.961Z,4.30
2022-09-16T02:36:25.741Z,2.70
2022-09-16T02:38:57.989Z,3.90
2022-09-16T02:41:25.528Z,2.07
2022-09-16T02:43:52.941Z,2.93
2022-09-16T02:46:37.719Z,1.37
2022-09-16T02:49:17.215Z,1.77
2022-09-16T02:51:57.224Z,2.63
2022-09-16T02:54:39.473Z,1.13
2022-09-16T02:57:09.352Z,5.20
2022-09-16T02:59:37.810Z,4.33
2022-09-16T03:02:08.084Z,4.20
2022-09-16T03:04:36.878Z,0.80
2022-09-16T03:07:07.866Z,2.50
2022-09-16T03:09:40.170Z,1.90
2022-09-16T03:12:30.002Z,1.20
2022-09-16T03:15:18.757Z,1.20
2022-09-16T03:18:11.878Z,3.13
2022-09-16T03:20:51.545Z,1.60
2022-09-16T03:23:36.382Z,2.37
2022-09-16T03:26:15.409Z,3.53
2022-09-16T03:28:55.130Z,2.33
2022-09-16T03:31:30.210Z,3.50
2022-09-16T03:34:08.865Z,4.07
2022-09-16T03:36:45.833Z,6.33
2022-09-16T03:39:14.562Z,3.03
2022-09-16T03:41:43.056Z,3.50
2022-09-16T03:44:10.329Z,1.73
2022-09-16T03:46:37.737Z,2.80
2022-09-16T03:49:05.311Z,1.70
2022-09-16T03:51:32.655Z,1.57
2022-09-16T03:54:01.259Z,3.10
2022-09-16T03:56:28.534Z,3.47
2022-09-16T03:58:55.808Z,4.27
2022-09-16T04:01:23.121Z,5.43
2022-09-16T04:03:52.335Z,1.40
2022-09-16T04:06:19.947Z,5.43
2022-09-16T04:08:50.505Z,1.27
2022-09-16T04:11:19.223Z,2.67
2022-09-16T04:13:46.482Z,5.20
2022-09-16T04:16:21.457Z,5.37
2022-09-16T04:18:49.561Z,7.57
2022-09-16T04:21:17.721Z,2.30
2022-09-16T04:23:45.336Z,3.87
2022-09-16T04:26:12.656Z,3.00
2022-09-16T04:28:41.265Z,3.43
2022-09-16T04:31:13.748Z,3.83
2022-09-16T04:33:41.782Z,1.90
2022-09-16T04:36:12.700Z,3.93
2022-09-16T04:38:41.586Z,3.30
2022-09-16T04:41:13.115Z,1.73
2022-09-16T04:43:42.913Z,7.40
2022-09-16T04:46:10.917Z,2.17
2022-09-16T04:48:38.809Z,2.33
2022-09-16T04:51:11.054Z,2.77
2022-09-16T04:53:41.434Z,5.33
2022-09-16T04:56:15.602Z,3.90
2022-09-16T04:58:46.243Z,2.83
2022-09-16T05:01:19.712Z,2.70
2022-09-16T05:03:53.439Z,3.10
2022-09-16T05:06:24.103Z,1.30
2022-09-16T05:08:53.848Z,1.93
2022-09-16T05:11:24.177Z,2.83
2022-09-16T05:13:54.200Z,2.33
2022-09-16T05:16:23.922Z,3.53
2022-09-16T05:18:54.745Z,1.50
2022-09-16T05:21:24.557Z,2.10
2022-09-16T05:23:55.935Z,2.60
2022-09-16T05:26:26.327Z,1.93
2022-09-16T05:28:55.310Z,6.23
2022-09-16T05:31:26.567Z,3.57
2022-09-16T05:33:58.346Z,3.27
2022-09-16T05:36:27.952Z,6.47
2022-09-16T05:39:21.130Z,2.17
2022-09-16T05:41:44.660Z,3.10
2022-09-16T05:44:13.737Z,4.33
2022-09-16T05:46:41.905Z,5.10
2022-09-16T05:49:10.067Z,4.40
2022-09-16T05:51:38.938Z,1.73
2022-09-16T05:54:06.358Z,3.33
2022-09-16T05:56:34.146Z,4.70
2022-09-16T05:59:02.227Z,4.60
2022-09-16T06:01:33.344Z,5.30
2022-09-16T06:04:03.500Z,4.20
2022-09-16T06:06:33.156Z,3.20
2022-09-16T06:09:05.150Z,6.87
2022-09-16T06:11:36.717Z,3.43
2022-09-16T06:14:05.974Z,4.33
2022-09-16T06:16:35.491Z,3.77
2022-09-16T06:19:06.600Z,8.40
2022-09-16T06:21:34.428Z,5.80
2022-09-16T06:24:03.361Z,4.07
2022-09-16T06:26:30.679Z,2.80
2022-09-16T06:28:57.922Z,5.67
2022-09-16T06:31:27.959Z,4.17
2022-09-16T06:33:58.376Z,3.50
2022-09-16T06:36:32.382Z,8.13
2022-09-16T06:38:59.830Z,4.47
2022-09-16T06:41:27.441Z,4.40
2022-09-16T06:43:54.810Z,3.30
2022-09-16T06:46:26.549Z,3.13
2022-09-16T06:48:59.283Z,2.53
2022-09-16T06:51:31.780Z,4.77
2022-09-16T06:54:02.696Z,3.27
2022-09-16T06:56:30.092Z,4.63
2022-09-16T06:58:58.418Z,5.43
2022-09-16T07:01:29.253Z,5.00
2022-09-16T07:04:02.762Z,2.97
2022-09-16T07:06:58.297Z,3.27
2022-09-16T07:09:20.279Z,3.10
2022-09-16T07:11:47.561Z,3.57
2022-09-16T07:14:14.841Z,3.23
2022-09-16T07:16:42.134Z,4.03
2022-09-16T07:19:10.962Z,2.87
2022-09-16T07:21:38.282Z,5.90
2022-09-16T07:24:05.911Z,4.83
2022-09-16T07:26:37.756Z,1.70
2022-09-16T07:29:10.005Z,4.60
2022-09-16T07:31:38.469Z,5.67
2022-09-16T07:34:08.905Z,3.87
2022-09-16T07:36:41.156Z,8.13
2022-09-16T07:39:09.371Z,2.27
2022-09-16T07:41:40.007Z,2.73
2022-09-16T07:44:11.242Z,2.97
2022-09-16T07:46:38.797Z,4.43
2022-09-16T07:49:09.534Z,3.33
2022-09-16T07:51:38.336Z,4.90
2022-09-16T07:54:09.605Z,5.83
2022-09-16T07:56:39.817Z,3.00
2022-09-16T07:59:13.071Z,2.63
2022-09-16T08:01:43.865Z,3.83
2022-09-16T08:04:12.107Z,2.13
2022-09-16T08:06:41.295Z,4.13
2022-09-16T08:09:27.247Z,5.27
2022-09-16T08:11:57.824Z,3.57
2022-09-16T08:14:25.475Z,3.97
2022-09-16T08:16:53.006Z,4.93
2022-09-16T08:19:22.301Z,4.80
2022-09-16T08:21:51.918Z,6.03
2022-09-16T08:24:19.426Z,3.63
2022-09-16T08:26:46.704Z,3.07
2022-09-16T08:29:14.365Z,3.17
2022-09-16T08:31:41.955Z,4.40
2022-09-16T08:34:09.259Z,4.97
2022-09-16T08:36:37.191Z,5.90
2022-09-16T08:39:06.570Z,3.90
2022-09-16T08:42:00.198Z,3.20
2022-09-16T08:44:41.878Z,5.67
2022-09-16T08:47:27.652Z,4.50
2022-09-16T08:49:58.763Z,4.43
2022-09-16T08:52:32.210Z,4.60
2022-09-16T08:55:07.927Z,4.00
2022-09-16T08:57:41.588Z,5.47
2022-09-16T09:00:17.548Z,10.33
2022-09-16T09:02:53.855Z,4.27
2022-09-16T09:05:35.667Z,9.00
2022-09-16T09:08:21.566Z,4.83
2022-09-16T09:10:57.418Z,3.93
2022-09-16T09:13:57.199Z,6.70
2022-09-16T09:16:38.086Z,6.13
2022-09-16T09:19:31.494Z,6.53
2022-09-16T09:22:16.512Z,6.60
2022-09-16T09:25:20.470Z,5.03
2022-09-16T09:28:12.798Z,5.95
2022-09-16T09:30:50.369Z,6.70
2022-09-16T09:36:45.494Z,5.33
2022-09-16T09:39:40.628Z,4.60
2022-09-16T09:42:18.622Z,4.27
2022-09-16T09:44:58.508Z,6.07
2022-09-16T09:47:36.991Z,13.07
2022-09-16T09:50:17.825Z,6.10
2022-09-16T09:52:54.292Z,6.63
2022-09-16T09:55:24.874Z,8.47
2022-09-16T09:58:12.184Z,7.33
2022-09-16T10:00:41.533Z,5.03
2022-09-16T10:03:14.574Z,7.83
2022-09-16T10:05:42.196Z,6.80
2022-09-16T10:08:22.814Z,6.47
2022-09-16T10:10:52.763Z,5.60
2022-09-16T10:13:22.223Z,3.87
2022-09-16T10:15:55.804Z,2.87
2022-09-16T10:18:30.001Z,4.50
2022-09-16T10:21:04.834Z,4.27
2022-09-16T10:23:33.836Z,5.63
2022-09-16T10:26:20.207Z,3.83
2022-09-16T10:28:57.311Z,6.27
2022-09-16T10:31:34.378Z,9.23
2022-09-16T10:34:05.480Z,2.50
2022-09-16T10:36:35.810Z,5.73
2022-09-16T10:39:05.693Z,3.97
2022-09-16T10:41:40.827Z,6.53
2022-09-16T10:44:17.476Z,6.03
2022-09-16T10:46:54.850Z,5.03
2022-09-16T10:49:29.582Z,5.77
2022-09-16T10:52:16.718Z,5.60
2022-09-16T10:54:45.107Z,3.47
2022-09-16T10:57:26.705Z,5.37
2022-09-16T11:00:08.883Z,4.53
2022-09-16T11:03:24.120Z,4.07
2022-09-16T11:06:07.618Z,4.20
2022-09-16T11:08:54.816Z,4.70
2022-09-16T11:11:49.691Z,3.43
2022-09-16T11:14:37.525Z,6.17
2022-09-16T11:17:29.979Z,5.73
2022-09-16T11:20:35.528Z,3.83
2022-09-16T11:23:21.056Z,5.43
2022-09-16T11:26:00.676Z,4.13
2022-09-16T11:29:06.051Z,3.03
2022-09-16T11:31:51.987Z,5.13
2022-09-16T11:34:39.655Z,2.87
2022-09-16T11:37:19.505Z,3.53
2022-09-16T11:40:11.617Z,2.30
2022-09-16T11:42:43.608Z,2.47
2022-09-16T11:45:36.730Z,6.27
2022-09-16T11:48:39.858Z,2.13
2022-09-16T11:51:25.086Z,2.60
2022-09-16T11:57:02.640Z,4.50
2022-09-16T11:59:39.786Z,5.33
2022-09-16T12:02:20.921Z,2.60
2022-09-16T12:04:56.993Z,4.07
2022-09-16T12:07:38.642Z,4.00
2022-09-16T12:10:21.122Z,4.83
2022-09-16T12:12:57.705Z,5.13
2022-09-16T12:15:30.077Z,8.57
2022-09-16T12:18:06.640Z,5.90
2022-09-16T12:20:40.648Z,4.77
2022-09-16T12:23:18.683Z,4.57
2022-09-16T12:26:05.869Z,5.40
2022-09-16T12:28:42.977Z,3.67
2022-09-16T12:31:23.022Z,5.10
2022-09-16T12:33:58.888Z,10.53
2022-09-16T12:36:32.512Z,5.43
2022-09-16T12:39:01.409Z,5.93
2022-09-16T12:42:33.260Z,6.40
2022-09-16T12:45:31.305Z,4.43
2022-09-16T12:48:31.248Z,5.40
2022-09-16T12:51:23.676Z,4.03
2022-09-16T12:54:41.289Z,8.23
2022-09-16T12:57:42.638Z,3.43
2022-09-16T13:00:22.049Z,8.77
2022-09-16T13:02:55.233Z,6.90
2022-09-16T13:05:30.959Z,8.67
2022-09-16T13:08:06.793Z,5.77
2022-09-16T13:10:54.947Z,4.93
2022-09-16T13:13:35.507Z,6.00
2022-09-16T13:16:07.000Z,7.07
2022-09-16T13:18:49.145Z,6.47
2022-09-16T13:21:27.143Z,8.53
2022-09-16T13:24:05.280Z,5.77
2022-09-16T13:26:44.812Z,7.70
2022-09-16T13:29:43.901Z,10.73
2022-09-16T13:32:28.958Z,9.27
2022-09-16T13:35:06.141Z,5.33
2022-09-16T13:37:33.639Z,8.73
2022-09-16T13:40:18.248Z,8.83
2022-09-16T13:42:45.594Z,9.27
2022-09-16T13:45:35.433Z,8.77
2022-09-16T13:48:12.916Z,13.27
2022-09-16T13:50:45.841Z,9.77
2022-09-16T13:53:27.907Z,11.10
2022-09-16T13:56:06.143Z,9.13
2022-09-16T13:58:42.312Z,9.67
2022-09-16T14:01:28.033Z,7.13
2022-09-16T14:04:13.235Z,11.43
2022-09-16T14:07:00.445Z,9.03
2022-09-16T14:09:47.151Z,10.63
2022-09-16T14:12:23.648Z,11.30
2022-09-16T14:14:52.230Z,7.43
2022-09-16T14:17:25.753Z,8.63
2022-09-16T14:19:58.996Z,9.47
2022-09-16T14:22:28.001Z,8.87
2022-09-16T14:25:06.308Z,7.83
2022-09-16T14:27:40.480Z,6.53
2022-09-16T14:30:20.535Z,7.87
2022-09-16T14:32:53.018Z,5.47
2022-09-16T14:35:24.847Z,4.13
2022-09-16T14:37:57.217Z,6.20
2022-09-16T14:40:27.171Z,5.17
2022-09-16T14:43:03.253Z,6.53
2022-09-16T14:45:33.146Z,6.87
2022-09-16T14:48:08.611Z,3.87
2022-09-16T14:50:42.616Z,6.90
2022-09-16T14:53:34.761Z,7.67
2022-09-16T14:56:03.967Z,4.07
2022-09-16T14:58:33.867Z,5.30
2022-09-16T15:01:09.069Z,5.13
2022-09-16T15:03:49.921Z,9.83
2022-09-16T15:06:22.969Z,2.40
2022-09-16T15:08:58.605Z,7.73
2022-09-16T15:11:48.701Z,7.63
2022-09-16T15:14:18.025Z,3.07
2022-09-16T15:16:51.433Z,5.93
2022-09-16T15:19:25.337Z,5.27
2022-09-16T15:21:53.525Z,3.67
2022-09-16T15:24:25.985Z,6.93
2022-09-16T15:26:54.105Z,5.77
2022-09-16T15:29:34.111Z,4.00
2022-09-16T15:32:20.950Z,2.77
2022-09-16T15:35:10.461Z,2.80
2022-09-16T15:37:38.065Z,3.67
2022-09-16T15:40:31.665Z,5.70
2022-09-16T15:43:12.208Z,2.97
2022-09-16T15:45:40.133Z,5.63
2022-09-16T15:48:17.466Z,3.47
2022-09-16T15:50:51.183Z,4.30
2022-09-16T15:53:34.165Z,4.77
2022-09-16T15:56:08.077Z,4.47
2022-09-16T15:58:41.939Z,3.70
2022-09-16T16:01:15.752Z,5.67
2022-09-16T16:03:54.729Z,3.47
2022-09-16T16:06:46.489Z,4.07
2022-09-16T16:09:44.272Z,5.37
2022-09-16T16:12:16.332Z,5.17
2022-09-16T16:14:46.557Z,5.50
2022-09-16T16:17:17.163Z,4.10
2022-09-16T16:19:46.925Z,4.63
2022-09-16T16:22:16.581Z,5.60
2022-09-16T16:24:45.401Z,4.47
2022-09-16T16:27:12.821Z,5.40
2022-09-16T16:29:40.270Z,4.30
2022-09-16T16:32:09.974Z,5.27
2022-09-16T16:34:41.003Z,7.10
2022-09-16T16:37:19.161Z,5.90
2022-09-16T16:39:57.418Z,3.80
2022-09-16T16:42:25.261Z,5.37
2022-09-16T16:44:52.592Z,4.40
2022-09-16T16:47:19.836Z,4.30
2022-09-16T16:49:51.332Z,5.47
2022-09-16T16:52:19.230Z,3.90
2022-09-16T16:54:46.710Z,3.37
2022-09-16T16:57:15.329Z,4.90
2022-09-16T16:59:42.625Z,7.50
2022-09-16T17:02:11.723Z,4.87
2022-09-16T17:04:39.102Z,7.33
2022-09-16T17:07:25.255Z,4.57
2022-09-16T17:09:54.014Z,3.73
2022-09-16T17:12:22.664Z,3.50
2022-09-16T17:14:50.172Z,3.73
2022-09-16T17:17:17.540Z,3.83
2022-09-16T17:19:44.969Z,3.80
2022-09-16T17:22:12.267Z,4.80
2022-09-16T17:24:39.622Z,4.13
2022-09-16T17:27:06.905Z,4.37
2022-09-16T17:29:35.565Z,3.50
2022-09-16T17:32:03.514Z,3.50
2022-09-16T17:34:31.269Z,4.63
2022-09-16T17:36:58.879Z,2.07
2022-09-16T17:39:26.746Z,3.13
2022-09-16T17:41:56.551Z,3.37
2022-09-16T17:44:24.819Z,3.87
2022-09-16T17:46:53.755Z,4.10
2022-09-16T17:49:23.934Z,2.77
2022-09-16T17:51:53.357Z,2.30
2022-09-16T17:54:21.322Z,3.57
2022-09-16T17:56:48.826Z,6.27
2022-09-16T17:59:19.283Z,2.37
2022-09-16T18:01:47.287Z,2.70
2022-09-16T18:04:16.016Z,3.77
2022-09-16T18:06:46.773Z,4.90
2022-09-16T18:09:16.552Z,3.83
2022-09-16T18:11:44.915Z,3.20
2022-09-16T18:14:13.921Z,2.07
2022-09-16T18:16:42.900Z,3.23
2022-09-16T18:19:10.234Z,3.70
2022-09-16T18:21:39.019Z,3.60
2022-09-16T18:24:11.254Z,4.10
2022-09-16T18:26:39.201Z,3.83
2022-09-16T18:29:10.024Z,2.23
2022-09-16T18:31:38.500Z,4.27
2022-09-16T18:34:06.024Z,3.93
2022-09-16T18:36:35.191Z,2.67
2022-09-16T18:39:06.024Z,5.97
2022-09-16T18:41:37.762Z,2.27
2022-09-16T18:44:10.688Z,7.03
2022-09-16T18:46:38.955Z,5.33
2022-09-16T18:49:07.017Z,2.90
2022-09-16T18:51:37.680Z,4.33
2022-09-16T18:54:10.146Z,3.23
2022-09-16T18:56:39.482Z,2.70
2022-09-16T18:59:28.133Z,2.53
2022-09-16T19:01:58.850Z,4.07
2022-09-16T19:04:29.430Z,2.80
2022-09-16T19:07:05.934Z,2.73
2022-09-16T19:09:37.269Z,4.00
2022-09-16T19:12:06.815Z,4.87
2022-09-16T19:14:34.369Z,4.10
2022-09-16T19:17:02.695Z,3.53
2022-09-16T19:19:30.012Z,3.83
2022-09-16T19:21:57.583Z,5.53
2022-09-16T19:24:27.100Z,3.10
2022-09-16T19:26:56.186Z,2.67
2022-09-16T19:29:23.824Z,2.90
2022-09-16T19:31:52.963Z,3.20
2022-09-16T19:34:21.728Z,3.57
2022-09-16T19:36:49.633Z,2.70
2022-09-16T19:39:17.610Z,3.63
2022-09-16T19:41:45.241Z,7.77
2022-09-16T19:44:17.464Z,5.27
2022-09-16T19:46:47.005Z,4.83
2022-09-16T19:49:17.734Z,5.00
2022-09-16T19:51:45.169Z,5.33
2022-09-16T19:54:12.789Z,4.60
2022-09-16T19:56:40.206Z,4.83
2022-09-16T19:59:07.974Z,5.73
2022-09-16T20:01:37.467Z,4.57
2022-09-16T20:04:07.758Z,3.47
2022-09-16T20:06:37.552Z,6.03
2022-09-16T20:09:07.721Z,5.77
2022-09-16T20:11:38.304Z,4.60
2022-09-16T20:14:08.621Z,3.00
2022-09-16T20:16:39.810Z,3.87
2022-09-16T20:19:10.171Z,5.07
2022-09-16T20:21:38.553Z,4.47
2022-09-16T20:24:08.383Z,7.90
2022-09-16T20:26:36.164Z,3.57
2022-09-16T20:29:05.206Z,7.00
2022-09-16T20:31:36.535Z,3.90
2022-09-16T20:34:05.376Z,4.03
2022-09-16T20:36:38.216Z,5.07
2022-09-16T20:39:07.175Z,4.50
2022-09-16T20:41:37.102Z,4.27
2022-09-16T20:44:05.670Z,4.07
2022-09-16T20:46:37.198Z,2.53
2022-09-16T20:49:09.415Z,3.63
2022-09-16T20:51:37.232Z,3.50
2022-09-16T20:54:08.817Z,4.23
2022-09-16T20:56:39.350Z,4.50
2022-09-16T20:59:07.733Z,4.43
2022-09-16T21:01:38.070Z,3.27
2022-09-16T21:04:08.569Z,2.83
2022-09-16T21:06:36.763Z,3.47
2022-09-16T21:09:08.236Z,3.83
2022-09-16T21:11:35.973Z,5.47
2022-09-16T21:14:08.876Z,3.03
2022-09-16T21:16:40.471Z,5.47
2022-09-16T21:19:10.943Z,4.87
2022-09-16T21:21:41.285Z,5.80
2022-09-16T21:24:09.689Z,5.77
2022-09-16T21:26:39.389Z,4.80
2022-09-16T21:29:10.947Z,7.30
2022-09-16T21:31:42.377Z,5.47
2022-09-16T21:34:13.672Z,8.33
2022-09-16T21:36:41.560Z,5.50
2022-09-16T21:39:09.332Z,9.50
2022-09-16T21:41:37.343Z,8.30
2022-09-16T21:44:05.068Z,7.77
2022-09-16T21:46:41.306Z,6.10
2022-09-16T21:49:18.158Z,8.03
2022-09-16T21:51:45.521Z,8.30
2022-09-16T21:54:16.605Z,7.40
2022-09-16T21:56:46.667Z,6.03
2022-09-16T21:59:14.075Z,12.47
2022-09-16T22:01:41.395Z,7.80
2022-09-16T22:04:14.122Z,9.07
2022-09-16T22:06:42.202Z,12.53
2022-09-16T22:09:11.304Z,12.17
2022-09-16T22:11:41.345Z,11.20
2022-09-16T22:14:11.162Z,9.67
2022-09-16T22:16:39.486Z,6.93
2022-09-16T22:19:11.805Z,10.63
2022-09-16T22:21:44.185Z,10.47
2022-09-16T22:24:12.055Z,9.57
2022-09-16T22:26:39.838Z,9.17
2022-09-16T22:29:09.370Z,6.23
2022-09-16T22:31:40.552Z,5.90
2022-09-16T22:34:09.088Z,6.73
2022-09-16T22:36:38.417Z,6.67
2022-09-16T22:39:13.776Z,7.60
2022-09-16T22:41:41.643Z,11.70
2022-09-16T22:44:08.913Z,8.83
2022-09-16T22:46:42.146Z,10.57
2022-09-16T22:49:10.039Z,11.17
2022-09-16T22:51:37.810Z,12.07
2022-09-16T22:54:07.504Z,11.53
2022-09-16T22:56:35.903Z,10.97
2022-09-16T22:59:06.676Z,12.80
2022-09-16T23:01:38.246Z,9.90
2022-09-16T23:04:08.043Z,13.03
2022-09-16T23:06:37.321Z,7.83
2022-09-16T23:09:08.478Z,11.60
2022-09-16T23:11:36.620Z,12.20
2022-09-16T23:14:06.530Z,12.77
2022-09-16T23:16:37.219Z,13.17
2022-09-16T23:19:07.867Z,10.23
2022-09-16T23:21:36.187Z,17.77
2022-09-16T23:24:08.654Z,14.30
2022-09-16T23:26:38.945Z,10.27
2022-09-16T23:29:09.950Z,12.17
2022-09-16T23:31:40.371Z,8.73
2022-09-16T23:34:11.209Z,13.23
2022-09-16T23:36:39.152Z,9.03
2022-09-16T23:39:09.049Z,12.60
2022-09-16T23:41:36.624Z,13.37
2022-09-16T23:44:04.180Z,10.13
2022-09-16T23:46:31.986Z,10.73
2022-09-16T23:49:00.477Z,14.47
2022-09-16T23:51:29.534Z,10.67
2022-09-16T23:53:59.297Z,8.53
2022-09-16T23:56:28.292Z,11.20
2022-09-16T23:59:00.511Z,5.83
